sensor_id;sensor_type;location;lat;lon;timestamp;temperature;humidity
13172;DHT22;6651;53.200;10.432;2023-06-22T00:00:47;19.30;99.90
13172;DHT22;6651;53.200;10.432;2023-06-22T00:03:13;19.20;99.90
13172;DHT22;6651;53.200;10.432;2023-06-22T00:05:38;19.20;99.90
13172;DHT22;6651;53.200;10.432;2023-06-22T00:08:04;19.20;99.90
13172;DHT22;6651;53.200;10.432;2023-06-22T00:10:33;19.20;99.90
13172;DHT22;6651;53.200;10.432;2023-06-22T00:12:58;19.20;99.90
13172;DHT22;6651;53.200;10.432;2023-06-22T00:15:24;19.20;99.90
13172;DHT22;6651;53.200;10.432;2023-06-22T00:17:50;19.20;99.90
13172;DHT22;6651;53.200;10.432;2023-06-22T00:20:16;19.10;99.90
13172;DHT22;6651;53.200;10.432;2023-06-22T00:22:44;19.00;99.90
13172;DHT22;6651;53.200;10.432;2023-06-22T00:25:10;19.00;99.90
13172;DHT22;6651;53.200;10.432;2023-06-22T00:27:36;19.00;99.90
13172;DHT22;6651;53.200;10.432;2023-06-22T00:30:02;19.00;99.90
13172;DHT22;6651;53.200;10.432;2023-06-22T00:32:28;19.00;99.90
13172;DHT22;6651;53.200;10.432;2023-06-22T00:34:54;19.10;99.90
13172;DHT22;6651;53.200;10.432;2023-06-22T00:37:20;19.10;99.90
13172;DHT22;6651;53.200;10.432;2023-06-22T00:39:51;19.00;99.90
13172;DHT22;6651;53.200;10.432;2023-06-22T00:42:17;18.90;99.90
13172;DHT22;6651;53.200;10.432;2023-06-22T00:44:43;18.90;99.90
13172;DHT22;6651;53.200;10.432;2023-06-22T00:47:11;18.90;99.90
13172;DHT22;6651;53.200;10.432;2023-06-22T00:49:38;18.90;99.90
13172;DHT22;6651;53.200;10.432;2023-06-22T00:52:07;18.80;99.90
13172;DHT22;6651;53.200;10.432;2023-06-22T00:54:41;18.60;99.90
13172;DHT22;6651;53.200;10.432;2023-06-22T00:57:11;18.50;99.90
13172;DHT22;6651;53.200;10.432;2023-06-22T00:59:37;18.40;99.90
13172;DHT22;6651;53.200;10.432;2023-06-22T01:02:04;18.30;99.90
13172;DHT22;6651;53.200;10.432;2023-06-22T01:04:37;18.30;99.90
13172;DHT22;6651;53.200;10.432;2023-06-22T01:07:28;18.30;99.90
13172;DHT22;6651;53.200;10.432;2023-06-22T01:12:39;18.30;99.90
13172;DHT22;6651;53.200;10.432;2023-06-22T01:15:11;18.20;99.90
13172;DHT22;6651;53.200;10.432;2023-06-22T01:17:41;18.20;99.90
13172;DHT22;6651;53.200;10.432;2023-06-22T01:20:09;18.20;99.90
13172;DHT22;6651;53.200;10.432;2023-06-22T01:28:42;18.20;99.90
13172;DHT22;6651;53.200;10.432;2023-06-22T01:31:10;18.10;99.90
13172;DHT22;6651;53.200;10.432;2023-06-22T01:33:41;18.10;99.90
13172;DHT22;6651;53.200;10.432;2023-06-22T01:36:07;18.20;99.90
13172;DHT22;6651;53.200;10.432;2023-06-22T01:38:34;18.20;99.90
13172;DHT22;6651;53.200;10.432;2023-06-22T01:41:01;18.20;99.90
13172;DHT22;6651;53.200;10.432;2023-06-22T01:43:28;18.10;99.90
13172;DHT22;6651;53.200;10.432;2023-06-22T01:45:56;18.00;99.90
13172;DHT22;6651;53.200;10.432;2023-06-22T01:48:23;18.00;99.90
13172;DHT22;6651;53.200;10.432;2023-06-22T01:50:49;17.90;99.90
13172;DHT22;6651;53.200;10.432;2023-06-22T01:53:15;17.90;99.90
13172;DHT22;6651;53.200;10.432;2023-06-22T01:55:41;17.80;99.90
13172;DHT22;6651;53.200;10.432;2023-06-22T01:58:06;17.80;99.90
13172;DHT22;6651;53.200;10.432;2023-06-22T02:00:35;17.80;99.90
13172;DHT22;6651;53.200;10.432;2023-06-22T02:03:08;17.90;99.90
13172;DHT22;6651;53.200;10.432;2023-06-22T02:05:39;17.90;99.90
13172;DHT22;6651;53.200;10.432;2023-06-22T02:08:10;17.80;99.90
13172;DHT22;6651;53.200;10.432;2023-06-22T02:10:38;17.70;99.90
13172;DHT22;6651;53.200;10.432;2023-06-22T02:13:08;17.60;99.90
13172;DHT22;6651;53.200;10.432;2023-06-22T02:15:34;17.50;99.90
13172;DHT22;6651;53.200;10.432;2023-06-22T02:18:01;17.60;99.90
13172;DHT22;6651;53.200;10.432;2023-06-22T02:20:26;17.70;99.90
13172;DHT22;6651;53.200;10.432;2023-06-22T02:22:52;17.70;99.90
13172;DHT22;6651;53.200;10.432;2023-06-22T02:25:18;17.70;99.90
13172;DHT22;6651;53.200;10.432;2023-06-22T02:27:44;17.60;99.90
13172;DHT22;6651;53.200;10.432;2023-06-22T02:30:11;17.60;99.90
13172;DHT22;6651;53.200;10.432;2023-06-22T02:32:37;17.60;99.90
13172;DHT22;6651;53.200;10.432;2023-06-22T02:35:08;17.70;99.90
13172;DHT22;6651;53.200;10.432;2023-06-22T02:37:35;17.60;99.90
13172;DHT22;6651;53.200;10.432;2023-06-22T02:40:05;17.60;99.90
13172;DHT22;6651;53.200;10.432;2023-06-22T02:42:32;17.60;99.90
13172;DHT22;6651;53.200;10.432;2023-06-22T02:44:58;17.60;99.90
13172;DHT22;6651;53.200;10.432;2023-06-22T02:47:24;17.70;99.90
13172;DHT22;6651;53.200;10.432;2023-06-22T02:49:49;17.70;99.90
13172;DHT22;6651;53.200;10.432;2023-06-22T02:52:15;17.70;99.90
13172;DHT22;6651;53.200;10.432;2023-06-22T02:54:41;17.60;99.90
13172;DHT22;6651;53.200;10.432;2023-06-22T02:57:06;17.40;99.90
13172;DHT22;6651;53.200;10.432;2023-06-22T02:59:32;17.40;99.90
13172;DHT22;6651;53.200;10.432;2023-06-22T03:01:58;17.30;99.90
13172;DHT22;6651;53.200;10.432;2023-06-22T03:04:23;17.30;99.90
13172;DHT22;6651;53.200;10.432;2023-06-22T03:06:49;17.40;99.90
13172;DHT22;6651;53.200;10.432;2023-06-22T03:09:16;17.40;99.90
13172;DHT22;6651;53.200;10.432;2023-06-22T03:11:42;17.20;99.90
13172;DHT22;6651;53.200;10.432;2023-06-22T03:14:08;17.00;99.90
13172;DHT22;6651;53.200;10.432;2023-06-22T03:16:34;16.90;99.90
13172;DHT22;6651;53.200;10.432;2023-06-22T03:18:59;16.90;99.90
13172;DHT22;6651;53.200;10.432;2023-06-22T03:21:28;17.00;99.90
13172;DHT22;6651;53.200;10.432;2023-06-22T03:23:54;17.00;99.90
13172;DHT22;6651;53.200;10.432;2023-06-22T03:26:20;17.10;99.90
13172;DHT22;6651;53.200;10.432;2023-06-22T03:28:46;17.10;99.90
13172;DHT22;6651;53.200;10.432;2023-06-22T03:31:11;17.10;99.90
13172;DHT22;6651;53.200;10.432;2023-06-22T03:33:37;17.10;99.90
13172;DHT22;6651;53.200;10.432;2023-06-22T03:36:03;17.10;99.90
13172;DHT22;6651;53.200;10.432;2023-06-22T03:38:29;17.10;99.90
13172;DHT22;6651;53.200;10.432;2023-06-22T03:40:54;17.10;99.90
13172;DHT22;6651;53.200;10.432;2023-06-22T03:43:20;17.10;99.90
13172;DHT22;6651;53.200;10.432;2023-06-22T03:45:46;17.10;99.90
13172;DHT22;6651;53.200;10.432;2023-06-22T03:48:12;17.10;99.90
13172;DHT22;6651;53.200;10.432;2023-06-22T03:50:38;17.20;99.90
13172;DHT22;6651;53.200;10.432;2023-06-22T03:53:04;17.30;99.90
13172;DHT22;6651;53.200;10.432;2023-06-22T03:55:29;17.40;99.90
13172;DHT22;6651;53.200;10.432;2023-06-22T03:57:55;17.50;99.90
13172;DHT22;6651;53.200;10.432;2023-06-22T04:00:23;17.50;99.90
13172;DHT22;6651;53.200;10.432;2023-06-22T04:02:49;17.50;99.90
13172;DHT22;6651;53.200;10.432;2023-06-22T04:05:15;17.50;99.90
13172;DHT22;6651;53.200;10.432;2023-06-22T04:07:42;17.50;99.90
13172;DHT22;6651;53.200;10.432;2023-06-22T04:10:08;17.50;99.90
13172;DHT22;6651;53.200;10.432;2023-06-22T04:12:34;17.50;99.90
13172;DHT22;6651;53.200;10.432;2023-06-22T04:15:00;17.50;99.90
13172;DHT22;6651;53.200;10.432;2023-06-22T04:17:25;17.50;99.90
13172;DHT22;6651;53.200;10.432;2023-06-22T04:19:51;17.50;99.90
13172;DHT22;6651;53.200;10.432;2023-06-22T04:22:17;17.50;99.90
13172;DHT22;6651;53.200;10.432;2023-06-22T04:24:44;17.40;99.90
13172;DHT22;6651;53.200;10.432;2023-06-22T04:27:10;17.40;99.90
13172;DHT22;6651;53.200;10.432;2023-06-22T04:29:36;17.30;99.90
13172;DHT22;6651;53.200;10.432;2023-06-22T04:32:02;17.30;99.90
13172;DHT22;6651;53.200;10.432;2023-06-22T04:34:31;17.40;99.90
13172;DHT22;6651;53.200;10.432;2023-06-22T04:36:57;17.40;99.90
13172;DHT22;6651;53.200;10.432;2023-06-22T04:39:23;17.40;99.90
13172;DHT22;6651;53.200;10.432;2023-06-22T04:41:49;17.60;99.90
13172;DHT22;6651;53.200;10.432;2023-06-22T04:44:18;17.60;99.90
13172;DHT22;6651;53.200;10.432;2023-06-22T04:46:57;17.70;99.90
13172;DHT22;6651;53.200;10.432;2023-06-22T04:49:30;17.80;99.90
13172;DHT22;6651;53.200;10.432;2023-06-22T04:51:59;17.80;99.90
13172;DHT22;6651;53.200;10.432;2023-06-22T04:54:25;17.80;99.90
13172;DHT22;6651;53.200;10.432;2023-06-22T04:56:50;17.80;99.90
13172;DHT22;6651;53.200;10.432;2023-06-22T04:59:23;17.90;99.90
13172;DHT22;6651;53.200;10.432;2023-06-22T05:01:56;17.80;99.90
13172;DHT22;6651;53.200;10.432;2023-06-22T05:04:22;17.80;99.90
13172;DHT22;6651;53.200;10.432;2023-06-22T05:06:49;17.80;99.90
13172;DHT22;6651;53.200;10.432;2023-06-22T05:09:15;17.90;99.90
13172;DHT22;6651;53.200;10.432;2023-06-22T05:11:41;18.00;99.90
13172;DHT22;6651;53.200;10.432;2023-06-22T05:14:06;18.00;99.90
13172;DHT22;6651;53.200;10.432;2023-06-22T05:16:33;18.10;99.90
13172;DHT22;6651;53.200;10.432;2023-06-22T05:18:58;18.10;99.90
13172;DHT22;6651;53.200;10.432;2023-06-22T05:21:26;18.30;99.90
13172;DHT22;6651;53.200;10.432;2023-06-22T05:23:53;18.40;99.90
13172;DHT22;6651;53.200;10.432;2023-06-22T05:26:20;18.50;99.90
13172;DHT22;6651;53.200;10.432;2023-06-22T05:28:46;18.50;99.90
13172;DHT22;6651;53.200;10.432;2023-06-22T05:31:16;18.60;99.90
13172;DHT22;6651;53.200;10.432;2023-06-22T05:33:43;18.70;99.90
13172;DHT22;6651;53.200;10.432;2023-06-22T05:36:09;18.70;99.90
13172;DHT22;6651;53.200;10.432;2023-06-22T05:38:35;18.80;99.90
13172;DHT22;6651;53.200;10.432;2023-06-22T05:41:01;18.90;99.90
13172;DHT22;6651;53.200;10.432;2023-06-22T05:43:27;19.00;99.90
13172;DHT22;6651;53.200;10.432;2023-06-22T05:45:53;19.00;99.90
13172;DHT22;6651;53.200;10.432;2023-06-22T05:48:18;19.10;99.90
13172;DHT22;6651;53.200;10.432;2023-06-22T05:50:44;19.20;99.90
13172;DHT22;6651;53.200;10.432;2023-06-22T05:53:10;19.20;99.90
13172;DHT22;6651;53.200;10.432;2023-06-22T05:55:35;19.20;99.90
13172;DHT22;6651;53.200;10.432;2023-06-22T05:58:01;19.30;99.90
13172;DHT22;6651;53.200;10.432;2023-06-22T06:00:29;19.40;99.90
13172;DHT22;6651;53.200;10.432;2023-06-22T06:02:55;19.50;99.90
13172;DHT22;6651;53.200;10.432;2023-06-22T06:05:20;19.60;99.90
13172;DHT22;6651;53.200;10.432;2023-06-22T06:07:46;19.70;99.90
13172;DHT22;6651;53.200;10.432;2023-06-22T06:10:12;19.90;99.90
13172;DHT22;6651;53.200;10.432;2023-06-22T06:12:38;19.90;99.90
13172;DHT22;6651;53.200;10.432;2023-06-22T06:15:04;20.00;99.90
13172;DHT22;6651;53.200;10.432;2023-06-22T06:17:30;20.10;99.90
13172;DHT22;6651;53.200;10.432;2023-06-22T06:19:56;20.30;99.90
13172;DHT22;6651;53.200;10.432;2023-06-22T06:22:22;20.40;99.90
13172;DHT22;6651;53.200;10.432;2023-06-22T06:24:49;20.50;99.90
13172;DHT22;6651;53.200;10.432;2023-06-22T06:27:15;20.50;99.90
13172;DHT22;6651;53.200;10.432;2023-06-22T06:29:43;20.60;99.90
13172;DHT22;6651;53.200;10.432;2023-06-22T06:32:11;20.60;99.90
13172;DHT22;6651;53.200;10.432;2023-06-22T06:34:37;20.80;99.90
13172;DHT22;6651;53.200;10.432;2023-06-22T06:37:03;21.00;99.90
13172;DHT22;6651;53.200;10.432;2023-06-22T06:39:29;21.10;99.90
13172;DHT22;6651;53.200;10.432;2023-06-22T06:41:54;21.20;99.90
13172;DHT22;6651;53.200;10.432;2023-06-22T06:44:20;21.20;99.90
13172;DHT22;6651;53.200;10.432;2023-06-22T06:46:46;21.20;99.90
13172;DHT22;6651;53.200;10.432;2023-06-22T06:49:12;21.40;99.90
13172;DHT22;6651;53.200;10.432;2023-06-22T06:51:38;21.60;99.90
13172;DHT22;6651;53.200;10.432;2023-06-22T06:54:04;21.70;99.90
13172;DHT22;6651;53.200;10.432;2023-06-22T06:56:30;21.80;99.90
13172;DHT22;6651;53.200;10.432;2023-06-22T06:58:55;22.00;99.90
13172;DHT22;6651;53.200;10.432;2023-06-22T07:01:21;22.20;99.90
13172;DHT22;6651;53.200;10.432;2023-06-22T07:03:47;22.40;99.90
13172;DHT22;6651;53.200;10.432;2023-06-22T07:06:13;22.60;99.90
13172;DHT22;6651;53.200;10.432;2023-06-22T07:08:39;22.80;99.90
13172;DHT22;6651;53.200;10.432;2023-06-22T07:11:05;23.00;99.90
13172;DHT22;6651;53.200;10.432;2023-06-22T07:13:31;23.20;99.90
13172;DHT22;6651;53.200;10.432;2023-06-22T07:15:57;23.30;99.90
13172;DHT22;6651;53.200;10.432;2023-06-22T07:18:23;23.40;99.90
13172;DHT22;6651;53.200;10.432;2023-06-22T07:20:49;23.60;99.90
13172;DHT22;6651;53.200;10.432;2023-06-22T07:23:16;23.70;99.90
13172;DHT22;6651;53.200;10.432;2023-06-22T07:25:42;23.90;99.90
13172;DHT22;6651;53.200;10.432;2023-06-22T07:28:08;23.90;99.90
13172;DHT22;6651;53.200;10.432;2023-06-22T07:30:34;24.10;99.90
13172;DHT22;6651;53.200;10.432;2023-06-22T07:33:00;24.20;99.90
13172;DHT22;6651;53.200;10.432;2023-06-22T07:35:30;24.30;99.90
13172;DHT22;6651;53.200;10.432;2023-06-22T07:37:56;24.50;99.90
13172;DHT22;6651;53.200;10.432;2023-06-22T07:40:22;24.70;99.90
13172;DHT22;6651;53.200;10.432;2023-06-22T07:42:47;24.80;99.90
13172;DHT22;6651;53.200;10.432;2023-06-22T07:45:17;24.90;99.90
13172;DHT22;6651;53.200;10.432;2023-06-22T07:47:43;24.90;99.90
13172;DHT22;6651;53.200;10.432;2023-06-22T07:50:09;25.10;99.90
13172;DHT22;6651;53.200;10.432;2023-06-22T07:52:35;25.10;99.90
13172;DHT22;6651;53.200;10.432;2023-06-22T07:55:01;25.20;99.90
13172;DHT22;6651;53.200;10.432;2023-06-22T07:57:27;25.30;99.90
13172;DHT22;6651;53.200;10.432;2023-06-22T08:00:04;25.40;99.90
13172;DHT22;6651;53.200;10.432;2023-06-22T08:02:38;25.60;99.90
13172;DHT22;6651;53.200;10.432;2023-06-22T08:05:03;25.70;99.90
13172;DHT22;6651;53.200;10.432;2023-06-22T08:07:29;25.70;99.90
13172;DHT22;6651;53.200;10.432;2023-06-22T08:09:58;25.90;99.90
13172;DHT22;6651;53.200;10.432;2023-06-22T08:12:24;26.00;99.90
13172;DHT22;6651;53.200;10.432;2023-06-22T08:14:49;26.00;99.90
13172;DHT22;6651;53.200;10.432;2023-06-22T08:17:15;26.10;99.90
13172;DHT22;6651;53.200;10.432;2023-06-22T08:19:41;26.20;99.90
13172;DHT22;6651;53.200;10.432;2023-06-22T08:22:07;26.20;99.90
13172;DHT22;6651;53.200;10.432;2023-06-22T08:24:32;26.20;99.90
13172;DHT22;6651;53.200;10.432;2023-06-22T08:26:58;26.40;99.90
13172;DHT22;6651;53.200;10.432;2023-06-22T08:29:24;26.50;99.90
13172;DHT22;6651;53.200;10.432;2023-06-22T08:31:50;26.60;99.90
13172;DHT22;6651;53.200;10.432;2023-06-22T08:34:15;26.70;99.90
13172;DHT22;6651;53.200;10.432;2023-06-22T08:36:41;26.80;99.90
13172;DHT22;6651;53.200;10.432;2023-06-22T08:39:10;26.80;99.90
13172;DHT22;6651;53.200;10.432;2023-06-22T08:41:35;26.90;99.90
13172;DHT22;6651;53.200;10.432;2023-06-22T08:44:01;26.80;99.90
13172;DHT22;6651;53.200;10.432;2023-06-22T08:46:28;26.80;99.90
13172;DHT22;6651;53.200;10.432;2023-06-22T08:48:59;26.70;99.90
13172;DHT22;6651;53.200;10.432;2023-06-22T08:51:25;26.90;99.90
13172;DHT22;6651;53.200;10.432;2023-06-22T08:53:50;27.10;99.90
13172;DHT22;6651;53.200;10.432;2023-06-22T08:56:16;27.00;99.90
13172;DHT22;6651;53.200;10.432;2023-06-22T08:58:42;27.00;99.90
13172;DHT22;6651;53.200;10.432;2023-06-22T09:01:07;27.30;99.90
13172;DHT22;6651;53.200;10.432;2023-06-22T09:03:33;27.50;99.90
13172;DHT22;6651;53.200;10.432;2023-06-22T09:06:01;27.40;99.90
13172;DHT22;6651;53.200;10.432;2023-06-22T09:08:27;27.20;99.90
13172;DHT22;6651;53.200;10.432;2023-06-22T09:10:53;27.30;99.90
13172;DHT22;6651;53.200;10.432;2023-06-22T09:13:18;27.40;99.90
13172;DHT22;6651;53.200;10.432;2023-06-22T09:15:44;27.50;99.90
13172;DHT22;6651;53.200;10.432;2023-06-22T09:18:13;27.60;99.90
13172;DHT22;6651;53.200;10.432;2023-06-22T09:20:39;27.70;99.90
13172;DHT22;6651;53.200;10.432;2023-06-22T09:23:05;27.90;99.90
13172;DHT22;6651;53.200;10.432;2023-06-22T09:25:31;27.80;99.90
13172;DHT22;6651;53.200;10.432;2023-06-22T09:27:56;27.60;99.90
13172;DHT22;6651;53.200;10.432;2023-06-22T09:30:22;27.40;99.90
13172;DHT22;6651;53.200;10.432;2023-06-22T09:32:48;27.30;99.90
13172;DHT22;6651;53.200;10.432;2023-06-22T09:35:14;27.10;99.90
13172;DHT22;6651;53.200;10.432;2023-06-22T09:37:40;26.90;99.90
13172;DHT22;6651;53.200;10.432;2023-06-22T09:40:08;26.70;99.90
13172;DHT22;6651;53.200;10.432;2023-06-22T09:42:38;26.70;99.90
13172;DHT22;6651;53.200;10.432;2023-06-22T09:45:05;26.70;99.90
13172;DHT22;6651;53.200;10.432;2023-06-22T09:47:30;26.60;99.90
13172;DHT22;6651;53.200;10.432;2023-06-22T09:49:56;26.80;99.90
13172;DHT22;6651;53.200;10.432;2023-06-22T09:52:24;26.70;99.90
13172;DHT22;6651;53.200;10.432;2023-06-22T09:54:50;26.70;99.90
13172;DHT22;6651;53.200;10.432;2023-06-22T09:57:15;26.70;99.90
13172;DHT22;6651;53.200;10.432;2023-06-22T09:59:41;26.80;99.90
13172;DHT22;6651;53.200;10.432;2023-06-22T10:02:07;26.90;99.90
13172;DHT22;6651;53.200;10.432;2023-06-22T10:04:34;27.00;99.90
13172;DHT22;6651;53.200;10.432;2023-06-22T10:07:00;27.10;99.90
13172;DHT22;6651;53.200;10.432;2023-06-22T10:09:25;27.20;99.90
13172;DHT22;6651;53.200;10.432;2023-06-22T10:11:51;27.30;99.90
13172;DHT22;6651;53.200;10.432;2023-06-22T10:14:17;27.40;99.90
13172;DHT22;6651;53.200;10.432;2023-06-22T10:16:42;27.60;99.90
13172;DHT22;6651;53.200;10.432;2023-06-22T10:19:08;27.70;99.90
13172;DHT22;6651;53.200;10.432;2023-06-22T10:21:34;27.50;99.90
13172;DHT22;6651;53.200;10.432;2023-06-22T10:24:00;27.30;99.90
13172;DHT22;6651;53.200;10.432;2023-06-22T10:26:34;27.40;99.90
13172;DHT22;6651;53.200;10.432;2023-06-22T10:29:01;27.30;99.90
13172;DHT22;6651;53.200;10.432;2023-06-22T10:31:27;27.20;99.90
13172;DHT22;6651;53.200;10.432;2023-06-22T10:33:54;27.40;99.90
13172;DHT22;6651;53.200;10.432;2023-06-22T10:36:20;27.70;99.90
13172;DHT22;6651;53.200;10.432;2023-06-22T10:38:46;28.10;99.90
13172;DHT22;6651;53.200;10.432;2023-06-22T10:41:12;28.40;99.90
13172;DHT22;6651;53.200;10.432;2023-06-22T10:43:38;28.50;99.90
13172;DHT22;6651;53.200;10.432;2023-06-22T10:46:04;28.50;99.90
13172;DHT22;6651;53.200;10.432;2023-06-22T10:48:30;28.30;99.90
13172;DHT22;6651;53.200;10.432;2023-06-22T10:50:55;28.30;99.90
13172;DHT22;6651;53.200;10.432;2023-06-22T10:53:21;28.40;99.90
13172;DHT22;6651;53.200;10.432;2023-06-22T10:55:47;28.60;99.90
13172;DHT22;6651;53.200;10.432;2023-06-22T10:58:13;28.80;99.90
13172;DHT22;6651;53.200;10.432;2023-06-22T11:00:38;29.00;99.90
13172;DHT22;6651;53.200;10.432;2023-06-22T11:03:04;29.10;99.90
13172;DHT22;6651;53.200;10.432;2023-06-22T11:05:30;29.00;99.90
13172;DHT22;6651;53.200;10.432;2023-06-22T11:07:55;29.00;99.90
13172;DHT22;6651;53.200;10.432;2023-06-22T11:10:21;28.70;99.90
13172;DHT22;6651;53.200;10.432;2023-06-22T11:12:47;28.60;99.90
13172;DHT22;6651;53.200;10.432;2023-06-22T11:15:12;28.60;99.90
13172;DHT22;6651;53.200;10.432;2023-06-22T11:17:38;28.50;99.90
13172;DHT22;6651;53.200;10.432;2023-06-22T11:20:05;28.50;99.90
13172;DHT22;6651;53.200;10.432;2023-06-22T11:22:39;28.50;99.90
13172;DHT22;6651;53.200;10.432;2023-06-22T11:25:05;28.60;99.90
13172;DHT22;6651;53.200;10.432;2023-06-22T11:27:31;28.50;99.90
13172;DHT22;6651;53.200;10.432;2023-06-22T11:29:57;28.40;99.90
13172;DHT22;6651;53.200;10.432;2023-06-22T11:32:23;28.40;99.90
13172;DHT22;6651;53.200;10.432;2023-06-22T11:34:49;28.40;99.90
13172;DHT22;6651;53.200;10.432;2023-06-22T11:37:15;28.20;99.90
13172;DHT22;6651;53.200;10.432;2023-06-22T11:39:41;28.20;99.90
13172;DHT22;6651;53.200;10.432;2023-06-22T11:42:07;28.30;99.90
13172;DHT22;6651;53.200;10.432;2023-06-22T11:44:34;28.40;99.90
13172;DHT22;6651;53.200;10.432;2023-06-22T11:47:00;28.30;99.90
13172;DHT22;6651;53.200;10.432;2023-06-22T11:49:26;28.30;99.90
13172;DHT22;6651;53.200;10.432;2023-06-22T11:51:52;28.30;99.90
13172;DHT22;6651;53.200;10.432;2023-06-22T11:54:18;28.40;99.90
13172;DHT22;6651;53.200;10.432;2023-06-22T11:56:44;28.40;99.90
13172;DHT22;6651;53.200;10.432;2023-06-22T11:59:09;28.30;99.90
13172;DHT22;6651;53.200;10.432;2023-06-22T12:01:35;28.30;99.90
13172;DHT22;6651;53.200;10.432;2023-06-22T12:04:01;28.30;99.90
13172;DHT22;6651;53.200;10.432;2023-06-22T12:06:26;28.30;99.90
13172;DHT22;6651;53.200;10.432;2023-06-22T12:08:52;28.20;99.90
13172;DHT22;6651;53.200;10.432;2023-06-22T12:11:18;28.00;99.90
13172;DHT22;6651;53.200;10.432;2023-06-22T12:13:44;28.00;99.90
13172;DHT22;6651;53.200;10.432;2023-06-22T12:16:09;27.90;99.90
13172;DHT22;6651;53.200;10.432;2023-06-22T12:18:38;27.90;99.90
13172;DHT22;6651;53.200;10.432;2023-06-22T12:21:03;27.90;99.90
13172;DHT22;6651;53.200;10.432;2023-06-22T12:23:29;27.80;99.90
13172;DHT22;6651;53.200;10.432;2023-06-22T12:25:55;27.80;99.90
13172;DHT22;6651;53.200;10.432;2023-06-22T12:28:20;27.70;99.90
13172;DHT22;6651;53.200;10.432;2023-06-22T12:30:46;27.70;99.90
13172;DHT22;6651;53.200;10.432;2023-06-22T12:33:12;27.60;99.90
13172;DHT22;6651;53.200;10.432;2023-06-22T12:35:37;27.50;99.90
13172;DHT22;6651;53.200;10.432;2023-06-22T12:38:03;27.50;99.90
13172;DHT22;6651;53.200;10.432;2023-06-22T12:40:28;27.40;99.90
13172;DHT22;6651;53.200;10.432;2023-06-22T12:42:54;27.40;99.90
13172;DHT22;6651;53.200;10.432;2023-06-22T12:45:20;27.50;99.90
13172;DHT22;6651;53.200;10.432;2023-06-22T12:47:46;27.40;99.90
13172;DHT22;6651;53.200;10.432;2023-06-22T12:50:12;27.40;99.90
13172;DHT22;6651;53.200;10.432;2023-06-22T12:52:39;27.30;99.90
13172;DHT22;6651;53.200;10.432;2023-06-22T12:55:06;27.40;99.90
13172;DHT22;6651;53.200;10.432;2023-06-22T12:57:32;27.30;99.90
13172;DHT22;6651;53.200;10.432;2023-06-22T12:59:58;27.40;99.90
13172;DHT22;6651;53.200;10.432;2023-06-22T13:02:25;27.40;99.90
13172;DHT22;6651;53.200;10.432;2023-06-22T13:04:51;27.40;99.90
13172;DHT22;6651;53.200;10.432;2023-06-22T13:07:17;27.40;99.90
13172;DHT22;6651;53.200;10.432;2023-06-22T13:09:42;27.20;99.90
13172;DHT22;6651;53.200;10.432;2023-06-22T13:12:10;27.10;99.90
13172;DHT22;6651;53.200;10.432;2023-06-22T13:14:36;27.10;99.90
13172;DHT22;6651;53.200;10.432;2023-06-22T13:17:02;27.00;99.90
13172;DHT22;6651;53.200;10.432;2023-06-22T13:19:27;27.00;99.90
13172;DHT22;6651;53.200;10.432;2023-06-22T13:21:57;27.00;99.90
13172;DHT22;6651;53.200;10.432;2023-06-22T13:24:23;26.90;99.90
13172;DHT22;6651;53.200;10.432;2023-06-22T13:26:49;26.90;99.90
13172;DHT22;6651;53.200;10.432;2023-06-22T13:29:14;26.80;99.90
13172;DHT22;6651;53.200;10.432;2023-06-22T13:31:40;26.70;99.90
13172;DHT22;6651;53.200;10.432;2023-06-22T13:34:06;26.70;99.90
13172;DHT22;6651;53.200;10.432;2023-06-22T13:36:32;26.60;99.90
13172;DHT22;6651;53.200;10.432;2023-06-22T13:38:57;26.70;99.90
13172;DHT22;6651;53.200;10.432;2023-06-22T13:41:24;26.80;99.90
13172;DHT22;6651;53.200;10.432;2023-06-22T13:43:51;26.70;99.90
13172;DHT22;6651;53.200;10.432;2023-06-22T13:46:16;26.70;99.90
13172;DHT22;6651;53.200;10.432;2023-06-22T13:48:42;26.70;99.90
13172;DHT22;6651;53.200;10.432;2023-06-22T13:51:08;26.70;99.90
13172;DHT22;6651;53.200;10.432;2023-06-22T14:01:22;26.50;99.90
13172;DHT22;6651;53.200;10.432;2023-06-22T14:03:48;26.60;99.90
13172;DHT22;6651;53.200;10.432;2023-06-22T14:06:17;26.70;99.90
13172;DHT22;6651;53.200;10.432;2023-06-22T14:08:48;26.60;99.90
13172;DHT22;6651;53.200;10.432;2023-06-22T14:11:15;26.60;99.90
13172;DHT22;6651;53.200;10.432;2023-06-22T14:13:43;26.60;99.90
13172;DHT22;6651;53.200;10.432;2023-06-22T14:16:09;26.60;99.90
13172;DHT22;6651;53.200;10.432;2023-06-22T14:18:35;26.60;99.90
13172;DHT22;6651;53.200;10.432;2023-06-22T14:21:01;26.70;99.90
13172;DHT22;6651;53.200;10.432;2023-06-22T14:23:28;26.70;99.90
13172;DHT22;6651;53.200;10.432;2023-06-22T14:25:59;26.70;99.90
13172;DHT22;6651;53.200;10.432;2023-06-22T14:29:24;26.80;99.90
13172;DHT22;6651;53.200;10.432;2023-06-22T14:35:25;26.90;99.90
13172;DHT22;6651;53.200;10.432;2023-06-22T14:38:07;27.00;99.90
13172;DHT22;6651;53.200;10.432;2023-06-22T14:40:51;27.00;99.90
13172;DHT22;6651;53.200;10.432;2023-06-22T14:46:42;26.90;99.90
13172;DHT22;6651;53.200;10.432;2023-06-22T14:49:16;27.00;99.90
13172;DHT22;6651;53.200;10.432;2023-06-22T14:52:20;27.00;99.90
13172;DHT22;6651;53.200;10.432;2023-06-22T14:54:46;27.00;99.90
13172;DHT22;6651;53.200;10.432;2023-06-22T14:57:12;27.00;99.90
13172;DHT22;6651;53.200;10.432;2023-06-22T14:59:37;27.00;99.90
13172;DHT22;6651;53.200;10.432;2023-06-22T15:02:03;27.10;99.90
13172;DHT22;6651;53.200;10.432;2023-06-22T15:04:29;27.10;99.90
13172;DHT22;6651;53.200;10.432;2023-06-22T15:07:00;27.00;99.90
13172;DHT22;6651;53.200;10.432;2023-06-22T15:09:25;27.00;99.90
13172;DHT22;6651;53.200;10.432;2023-06-22T15:11:54;26.80;99.90
13172;DHT22;6651;53.200;10.432;2023-06-22T15:14:23;26.80;99.90
13172;DHT22;6651;53.200;10.432;2023-06-22T15:16:50;26.70;99.90
13172;DHT22;6651;53.200;10.432;2023-06-22T15:19:15;26.70;99.90
13172;DHT22;6651;53.200;10.432;2023-06-22T15:21:44;26.60;99.90
13172;DHT22;6651;53.200;10.432;2023-06-22T15:24:13;26.60;99.90
13172;DHT22;6651;53.200;10.432;2023-06-22T15:26:38;26.60;99.90
13172;DHT22;6651;53.200;10.432;2023-06-22T15:29:04;26.50;99.90
13172;DHT22;6651;53.200;10.432;2023-06-22T15:31:30;26.40;99.90
13172;DHT22;6651;53.200;10.432;2023-06-22T15:33:58;26.30;99.90
13172;DHT22;6651;53.200;10.432;2023-06-22T15:36:31;26.20;99.90
13172;DHT22;6651;53.200;10.432;2023-06-22T15:38:59;26.20;99.90
13172;DHT22;6651;53.200;10.432;2023-06-22T15:41:25;26.20;99.90
13172;DHT22;6651;53.200;10.432;2023-06-22T15:46:24;26.20;99.90
13172;DHT22;6651;53.200;10.432;2023-06-22T15:48:50;26.20;99.90
13172;DHT22;6651;53.200;10.432;2023-06-22T15:51:15;26.20;99.90
13172;DHT22;6651;53.200;10.432;2023-06-22T15:53:41;26.10;99.90